Phoenix-Mesa Gateway Information

FAA: IWA - ICAO: KIWA

Phoenix-Mesa Gateway (Airport) Location

State Arizona
County Maricopa
City Phoenix
Phoenix-Mesa Gateway (Airport) is 20 miles southeast of Phoenix, AZ.
Latitude 33-18-28.1660N
Longitude 111-39-19.6530W
Elevation 1,384ft

Phoenix-Mesa Gateway METARs

METAR KIWA 292347Z 30008KT 10SM CLR 26/M01 A3000
Altimeter 30.00"
Temperature 26.0°C (78.8°F)
Wind 300° at 8KT
Clouds Skies are clear.
Visibility 10.0mi
Time observed: 2021-11-29T23:47:00Z

Phoenix-Mesa Gateway (Airport) Details

Status Operational
Activation December 1993
Ownership Public
Usage Public
Chart PHOENIX
ATC on-site Yes
Beacon schedule sunset-sunrise
Beacon color clear green

Phoenix-Mesa Gateway (Airport) Contacts

Owner PHX MESA GATEWAY AIRPORT AUTHORITY
Owner address 5835 S. SOSSAMAN RD, MESA, AZ 85212-0919
Owner phone (480) 988-7570
Manager N/A
Manager address N/A, N/A
Manager phone N/A

Phoenix-Mesa Gateway Radio Frequencies

Phoenix-Mesa Gateway (Airport) Radio Frequencies

UNICOM N/A
Common traffic advisory frequency (CTAF) 120.6